createdAt,value
2022-09-20T00:01:10.631Z,6.35
2022-09-20T00:03:47.304Z,5.80
2022-09-20T00:06:23.945Z,6.38
2022-09-20T00:08:54.707Z,4.85
2022-09-20T00:11:27.057Z,4.65
2022-09-20T00:14:00.124Z,4.40
2022-09-20T00:16:34.102Z,4.15
2022-09-20T00:19:06.846Z,6.68
2022-09-20T00:21:39.736Z,5.45
2022-09-20T00:24:10.171Z,4.68
2022-09-20T00:26:42.603Z,3.65
2022-09-20T00:29:12.830Z,5.43
2022-09-20T00:31:43.247Z,5.73
2022-09-20T00:34:26.608Z,5.30
2022-09-20T00:36:59.322Z,9.40
2022-09-20T00:39:29.720Z,7.72
2022-09-20T00:41:59.867Z,5.18
2022-09-20T00:44:52.813Z,6.07
2022-09-20T00:47:31.641Z,7.75
2022-09-20T00:50:15.480Z,7.28
2022-09-20T00:52:51.624Z,9.00
2022-09-20T00:55:23.392Z,9.05
2022-09-20T00:57:54.019Z,8.70
2022-09-20T01:00:24.403Z,6.22
2022-09-20T01:03:01.017Z,8.32
2022-09-20T01:05:31.334Z,7.45
2022-09-20T01:08:05.015Z,6.10
2022-09-20T01:10:35.738Z,4.78
2022-09-20T01:13:06.046Z,9.95
2022-09-20T01:15:40.445Z,11.23
2022-09-20T01:18:12.580Z,9.52
2022-09-20T01:20:45.674Z,6.82
2022-09-20T01:23:34.582Z,10.15
2022-09-20T01:26:31.196Z,9.32
2022-09-20T01:29:13.386Z,6.50
2022-09-20T01:31:51.060Z,8.60
2022-09-20T01:34:28.368Z,5.70
2022-09-20T01:37:09.456Z,7.20
2022-09-20T01:42:16.456Z,8.02
2022-09-20T01:45:03.912Z,6.88
2022-09-20T01:47:42.568Z,7.82
2022-09-20T01:50:26.084Z,11.93
2022-09-20T01:53:54.179Z,9.65
2022-09-20T01:57:17.840Z,9.25
2022-09-20T02:00:15.178Z,7.97
2022-09-20T02:03:49.024Z,13.43
2022-09-20T02:06:46.552Z,11.85
2022-09-20T02:10:00.607Z,7.43
2022-09-20T02:12:55.914Z,10.95
2022-09-20T02:15:58.350Z,8.85
2022-09-20T02:18:50.989Z,8.13
2022-09-20T02:21:33.330Z,9.32
2022-09-20T02:24:18.346Z,7.65
2022-09-20T02:27:05.406Z,11.57
2022-09-20T02:29:46.885Z,11.95
2022-09-20T02:32:34.894Z,8.10
2022-09-20T02:35:31.334Z,10.77
2022-09-20T02:38:13.322Z,7.60
2022-09-20T02:41:04.599Z,9.40
2022-09-20T02:43:43.908Z,8.85
2022-09-20T02:46:23.433Z,8.27
2022-09-20T02:49:05.695Z,10.45
2022-09-20T02:51:43.980Z,6.88
2022-09-20T02:54:33.008Z,8.07
2022-09-20T02:57:11.612Z,9.05
2022-09-20T02:59:50.326Z,9.95
2022-09-20T03:02:30.642Z,6.35
2022-09-20T03:05:15.255Z,9.33
2022-09-20T03:08:03.660Z,19.95
2022-09-20T03:10:42.391Z,10.20
2022-09-20T03:13:26.442Z,10.05
2022-09-20T03:16:07.317Z,9.50
2022-09-20T03:18:49.853Z,7.28
2022-09-20T03:21:40.960Z,9.80
2022-09-20T03:24:27.536Z,6.57
2022-09-20T03:27:08.216Z,9.98
2022-09-20T03:29:59.585Z,5.15
2022-09-20T03:32:50.934Z,5.82
2022-09-20T03:35:34.623Z,9.82
2022-09-20T03:38:25.755Z,7.13
2022-09-20T03:41:24.143Z,27.77
2022-09-20T03:44:23.424Z,9.70
2022-09-20T03:47:00.995Z,9.25
2022-09-20T03:50:16.036Z,6.65
2022-09-20T03:53:23.158Z,7.20
2022-09-20T03:56:22.520Z,6.35
2022-09-20T03:59:14.282Z,7.63
2022-09-20T04:02:21.141Z,7.13
2022-09-20T04:04:56.759Z,12.85
2022-09-20T04:07:38.503Z,9.55
2022-09-20T04:10:33.148Z,10.50
2022-09-20T04:13:20.682Z,7.93
2022-09-20T04:16:09.489Z,13.82
2022-09-20T04:18:47.401Z,8.55
2022-09-20T04:21:25.075Z,13.20
2022-09-20T04:24:03.664Z,8.68
2022-09-20T04:26:43.900Z,8.30
2022-09-20T04:29:34.330Z,7.37
2022-09-20T04:32:17.429Z,11.60
2022-09-20T04:35:04.467Z,8.82
2022-09-20T04:37:38.579Z,9.63
2022-09-20T04:40:21.781Z,16.98
2022-09-20T04:44:11.835Z,7.55
2022-09-20T04:47:28.733Z,11.25
2022-09-20T04:50:47.856Z,11.77
2022-09-20T04:53:46.490Z,16.88
2022-09-20T04:56:24.528Z,5.70
2022-09-20T04:59:25.207Z,8.75
2022-09-20T05:02:42.593Z,10.52
2022-09-20T05:05:55.291Z,8.63
2022-09-20T05:09:07.207Z,8.98
2022-09-20T05:12:26.004Z,10.05
2022-09-20T05:15:34.303Z,12.02
2022-09-20T05:18:55.758Z,12.75
2022-09-20T05:24:59.142Z,14.52
2022-09-20T05:27:44.482Z,13.45
2022-09-20T05:30:29.787Z,9.75
2022-09-20T05:33:13.338Z,13.63
2022-09-20T05:35:51.953Z,19.92
2022-09-20T05:38:33.808Z,18.17
2022-09-20T05:41:15.812Z,12.80
2022-09-20T05:43:56.950Z,16.02
2022-09-20T05:49:20.323Z,17.77
2022-09-20T05:52:36.346Z,11.55
2022-09-20T05:55:33.717Z,16.55
2022-09-20T05:58:25.413Z,11.00
2022-09-20T06:01:02.787Z,20.45
2022-09-20T06:03:44.260Z,14.05
2022-09-20T06:06:27.104Z,11.20
2022-09-20T06:09:37.487Z,16.40
2022-09-20T06:12:27.472Z,12.82
2022-09-20T06:15:06.111Z,14.18
2022-09-20T06:17:43.920Z,11.40
2022-09-20T06:20:28.352Z,13.75
2022-09-20T06:23:02.039Z,15.95
2022-09-20T06:25:42.994Z,17.98
2022-09-20T06:28:21.237Z,14.88
2022-09-20T06:30:53.688Z,10.27
2022-09-20T06:33:26.044Z,13.23
2022-09-20T06:36:25.702Z,13.77
2022-09-20T06:39:15.138Z,16.35
2022-09-20T06:41:46.283Z,16.77
2022-09-20T06:44:16.328Z,13.82
2022-09-20T06:46:46.374Z,17.58
2022-09-20T06:49:16.428Z,11.40
2022-09-20T06:51:50.330Z,15.88
2022-09-20T06:54:23.714Z,15.13
2022-09-20T06:56:54.894Z,15.30
2022-09-20T06:59:24.957Z,14.70
2022-09-20T07:01:54.965Z,15.53
2022-09-20T07:04:27.100Z,15.98
2022-09-20T07:07:09.432Z,17.58
2022-09-20T07:09:39.932Z,18.48
2022-09-20T07:12:12.491Z,16.63
2022-09-20T07:14:43.154Z,11.45
2022-09-20T07:17:14.054Z,12.32
2022-09-20T07:19:45.780Z,13.85
2022-09-20T07:22:18.647Z,15.48
2022-09-20T07:24:51.477Z,22.90
2022-09-20T07:27:21.929Z,11.18
2022-09-20T07:29:52.019Z,13.13
2022-09-20T07:32:22.064Z,18.60
2022-09-20T07:34:52.109Z,14.70
2022-09-20T07:37:24.811Z,12.52
2022-09-20T07:39:55.003Z,10.48
2022-09-20T07:42:25.044Z,14.90
2022-09-20T07:44:55.912Z,9.13
2022-09-20T07:47:26.693Z,12.50
2022-09-20T07:49:58.941Z,12.60
2022-09-20T07:52:32.311Z,8.48
2022-09-20T07:55:02.366Z,9.80
2022-09-20T07:57:32.388Z,12.13
2022-09-20T08:00:02.562Z,12.10
2022-09-20T08:02:42.524Z,14.73
2022-09-20T08:05:12.653Z,10.80
2022-09-20T08:07:45.262Z,14.47
2022-09-20T08:10:15.379Z,16.17
2022-09-20T08:15:35.566Z,12.07
2022-09-20T08:18:05.818Z,13.67
2022-09-20T08:20:42.702Z,10.27
2022-09-20T08:23:23.492Z,15.20
2022-09-20T08:25:54.251Z,16.48
2022-09-20T08:28:24.252Z,15.90
2022-09-20T08:30:54.573Z,9.07
2022-09-20T08:33:27.268Z,12.55
2022-09-20T08:35:59.143Z,11.43
2022-09-20T08:41:33.395Z,11.93
2022-09-20T08:44:07.220Z,12.10
2022-09-20T08:46:42.954Z,12.68
2022-09-20T08:49:22.503Z,10.80
2022-09-20T08:51:53.680Z,12.35
2022-09-20T08:54:32.109Z,14.10
2022-09-20T08:57:08.094Z,11.15
2022-09-20T08:59:38.403Z,10.13
2022-09-20T09:02:19.962Z,13.83
2022-09-20T09:04:53.841Z,11.73
2022-09-20T09:07:27.178Z,15.02
2022-09-20T09:10:03.163Z,14.02
2022-09-20T09:12:37.913Z,11.48
2022-09-20T09:15:27.464Z,12.80
2022-09-20T09:17:58.188Z,12.52
2022-09-20T09:20:29.316Z,14.68
2022-09-20T09:23:05.589Z,12.55
2022-09-20T09:25:42.027Z,12.88
2022-09-20T09:28:17.740Z,10.75
2022-09-20T09:30:49.594Z,12.98
2022-09-20T09:33:29.157Z,13.52
2022-09-20T09:36:02.219Z,14.32
2022-09-20T09:38:35.940Z,13.63
2022-09-20T09:41:25.437Z,11.68
2022-09-20T09:44:05.123Z,14.00
2022-09-20T09:46:38.335Z,15.90
2022-09-20T09:49:12.999Z,19.98
2022-09-20T09:51:45.231Z,16.77
2022-09-20T09:54:21.197Z,15.32
2022-09-20T09:57:08.466Z,14.93
2022-09-20T10:00:02.756Z,16.00
2022-09-20T10:03:03.911Z,16.17
2022-09-20T10:05:39.914Z,13.02
2022-09-20T10:08:29.015Z,15.57
2022-09-20T10:11:15.220Z,15.15
2022-09-20T10:14:05.665Z,18.63
2022-09-20T10:17:05.147Z,19.98
2022-09-20T10:19:53.803Z,12.30
2022-09-20T10:22:37.156Z,15.43
2022-09-20T10:25:24.076Z,15.60
2022-09-20T10:28:13.318Z,7.85
2022-09-20T10:30:58.466Z,8.20
2022-09-20T10:33:39.462Z,6.88
2022-09-20T10:39:01.635Z,6.35
2022-09-20T10:42:12.703Z,10.18
2022-09-20T10:47:42.153Z,10.00
2022-09-20T10:50:29.794Z,8.13
2022-09-20T10:53:24.436Z,6.93
2022-09-20T10:56:09.674Z,7.53
2022-09-20T10:59:17.392Z,7.78
2022-09-20T11:02:05.927Z,8.23
2022-09-20T11:05:06.335Z,6.75
2022-09-20T11:07:56.586Z,9.65
2022-09-20T11:10:33.536Z,6.67
2022-09-20T11:13:11.177Z,6.18
2022-09-20T11:15:48.495Z,7.82
2022-09-20T11:18:25.949Z,7.50
2022-09-20T11:21:10.726Z,4.15
2022-09-20T11:23:52.918Z,7.03
2022-09-20T11:26:31.804Z,9.20
2022-09-20T11:29:11.428Z,6.03
2022-09-20T11:31:46.464Z,5.97
2022-09-20T11:34:25.777Z,8.20
2022-09-20T11:37:01.542Z,5.88
2022-09-20T11:39:38.961Z,4.25
2022-09-20T11:42:15.345Z,5.45
2022-09-20T11:44:46.059Z,7.15
2022-09-20T11:47:50.076Z,5.78
2022-09-20T11:51:07.982Z,5.88
2022-09-20T11:54:16.185Z,3.97
2022-09-20T11:56:54.060Z,4.70
2022-09-20T11:59:36.820Z,7.38
2022-09-20T12:02:18.236Z,6.20
2022-09-20T12:04:53.505Z,5.45
2022-09-20T12:07:30.175Z,3.92
2022-09-20T12:10:08.411Z,2.03
2022-09-20T12:12:44.206Z,2.70
2022-09-20T12:15:29.434Z,3.38
2022-09-20T12:18:34.521Z,4.22
2022-09-20T12:21:18.805Z,4.28
2022-09-20T12:24:22.365Z,5.05
2022-09-20T12:26:59.442Z,3.80
2022-09-20T12:30:09.262Z,2.80
2022-09-20T12:33:01.173Z,4.43
2022-09-20T12:36:19.097Z,3.13
2022-09-20T12:39:08.226Z,3.92
2022-09-20T12:41:57.408Z,3.53
2022-09-20T12:44:36.200Z,3.92
2022-09-20T12:47:11.169Z,4.78
2022-09-20T12:50:06.709Z,3.95
2022-09-20T12:52:57.336Z,5.15
2022-09-20T12:55:57.771Z,5.45
2022-09-20T13:01:47.357Z,5.20
2022-09-20T13:04:58.994Z,5.57
2022-09-20T13:07:51.082Z,3.65
2022-09-20T13:10:32.054Z,4.47
2022-09-20T13:13:14.114Z,4.47
2022-09-20T13:15:53.538Z,5.57
2022-09-20T13:18:25.632Z,4.87
2022-09-20T13:21:02.794Z,5.05
2022-09-20T13:23:35.019Z,4.78
2022-09-20T13:26:05.618Z,7.18
2022-09-20T13:31:31.098Z,4.55
2022-09-20T13:34:26.569Z,5.30
2022-09-20T13:37:00.968Z,3.53
2022-09-20T13:39:42.536Z,5.22
2022-09-20T13:42:19.850Z,4.32
2022-09-20T13:44:51.093Z,4.70
2022-09-20T13:47:32.758Z,5.20
2022-09-20T13:50:13.278Z,3.83
2022-09-20T13:52:50.314Z,6.43
2022-09-20T13:55:39.978Z,4.13
2022-09-20T13:58:20.334Z,3.85
2022-09-20T14:00:55.947Z,4.18
2022-09-20T14:03:30.705Z,4.63
2022-09-20T14:06:04.240Z,7.13
2022-09-20T14:08:38.154Z,3.95
2022-09-20T14:11:11.299Z,4.28
2022-09-20T14:13:44.680Z,5.60
2022-09-20T14:16:15.973Z,5.15
2022-09-20T14:18:51.491Z,5.40
2022-09-20T14:21:30.714Z,4.05
2022-09-20T14:24:03.652Z,3.40
2022-09-20T14:26:36.423Z,4.20
2022-09-20T14:29:30.858Z,3.65
2022-09-20T14:32:07.394Z,3.83
2022-09-20T14:34:43.513Z,5.38
2022-09-20T14:37:20.886Z,4.80
2022-09-20T14:39:54.105Z,2.97
2022-09-20T14:42:37.893Z,5.20
2022-09-20T14:45:25.143Z,4.28
2022-09-20T14:48:10.860Z,4.65
2022-09-20T14:50:47.405Z,3.80
2022-09-20T14:53:31.979Z,5.28
2022-09-20T14:56:13.082Z,4.55
2022-09-20T14:59:22.164Z,5.85
2022-09-20T15:02:07.357Z,3.80
2022-09-20T15:04:39.049Z,3.85
2022-09-20T15:07:13.717Z,4.80
2022-09-20T15:09:43.980Z,4.00
2022-09-20T15:12:21.506Z,3.67
2022-09-20T15:14:52.107Z,5.63
2022-09-20T15:17:24.281Z,4.15
2022-09-20T15:19:54.386Z,3.03
2022-09-20T15:22:27.610Z,3.65
2022-09-20T15:24:57.724Z,3.20
2022-09-20T15:27:28.567Z,4.40
2022-09-20T15:30:01.706Z,3.97
2022-09-20T15:32:31.884Z,4.97
2022-09-20T15:37:35.230Z,4.10
2022-09-20T15:40:06.883Z,4.45
2022-09-20T15:42:41.678Z,6.07
2022-09-20T15:45:16.064Z,5.40
2022-09-20T15:47:47.834Z,6.30
2022-09-20T15:50:18.447Z,4.57
2022-09-20T15:52:51.511Z,4.68
2022-09-20T15:55:22.671Z,4.32
2022-09-20T15:57:58.083Z,3.90
2022-09-20T16:00:28.166Z,4.57
2022-09-20T16:02:58.468Z,4.65
2022-09-20T16:05:28.705Z,5.35
2022-09-20T16:08:01.508Z,5.28
2022-09-20T16:10:32.808Z,6.35
2022-09-20T16:13:04.129Z,7.15
2022-09-20T16:15:34.387Z,4.45
2022-09-20T16:18:19.776Z,5.38
2022-09-20T16:20:49.950Z,6.65
2022-09-20T16:23:26.006Z,4.23
2022-09-20T16:25:58.103Z,4.90
2022-09-20T16:28:30.797Z,8.40
2022-09-20T16:31:01.149Z,3.35
2022-09-20T16:33:33.087Z,4.55
2022-09-20T16:36:03.344Z,4.28
2022-09-20T16:38:39.005Z,4.95
2022-09-20T16:41:09.122Z,6.15
2022-09-20T16:43:39.530Z,4.83
2022-09-20T16:46:10.511Z,9.45
2022-09-20T16:48:40.910Z,6.90
2022-09-20T16:51:11.052Z,6.70
2022-09-20T16:53:43.769Z,5.50
2022-09-20T16:56:21.681Z,8.55
2022-09-20T16:58:52.272Z,6.35
2022-09-20T17:01:23.215Z,5.53
2022-09-20T17:06:23.654Z,5.60
2022-09-20T17:08:59.306Z,6.85
2022-09-20T17:11:32.291Z,6.03
2022-09-20T17:14:02.718Z,7.93
2022-09-20T17:16:36.775Z,5.78
2022-09-20T17:19:09.784Z,7.93
2022-09-20T17:21:43.496Z,8.50
2022-09-20T17:24:16.602Z,10.07
2022-09-20T17:26:49.035Z,6.40
2022-09-20T17:29:21.111Z,6.10
2022-09-20T17:31:59.620Z,6.95
2022-09-20T17:34:31.943Z,6.55
2022-09-20T17:37:03.566Z,5.82
2022-09-20T17:39:36.626Z,5.43
2022-09-20T17:42:07.301Z,10.00
2022-09-20T17:44:38.128Z,7.15
2022-09-20T17:47:13.357Z,4.40
2022-09-20T17:49:45.184Z,10.48
2022-09-20T17:52:16.416Z,5.65
2022-09-20T17:54:49.326Z,4.70
2022-09-20T17:57:19.976Z,5.35
2022-09-20T17:59:50.281Z,4.82
2022-09-20T18:02:20.727Z,6.45
2022-09-20T18:04:53.555Z,8.27
2022-09-20T18:07:26.746Z,6.80
2022-09-20T18:09:59.432Z,5.72
2022-09-20T18:12:29.767Z,15.93
2022-09-20T18:14:59.963Z,13.15
2022-09-20T18:17:30.260Z,10.17
2022-09-20T18:20:00.319Z,7.00
2022-09-20T18:22:30.490Z,9.70
2022-09-20T18:25:03.468Z,9.67
2022-09-20T18:27:34.172Z,8.45
2022-09-20T18:30:06.773Z,9.43
2022-09-20T18:32:37.120Z,10.35
2022-09-20T18:35:09.629Z,10.45
2022-09-20T18:37:39.807Z,8.10
2022-09-20T18:40:16.022Z,8.18
2022-09-20T18:42:46.118Z,8.48
2022-09-20T18:45:20.193Z,9.32
2022-09-20T18:47:51.826Z,10.25
2022-09-20T18:50:22.173Z,7.80
2022-09-20T18:52:52.934Z,7.68
2022-09-20T18:55:26.480Z,8.00
2022-09-20T18:58:01.349Z,6.85
2022-09-20T19:00:32.893Z,9.60
2022-09-20T19:03:10.425Z,9.07
2022-09-20T19:05:46.595Z,9.57
2022-09-20T19:08:34.285Z,8.32
2022-09-20T19:11:14.969Z,9.32
2022-09-20T19:13:53.409Z,8.18
2022-09-20T19:16:27.060Z,9.63
2022-09-20T19:19:26.769Z,10.55
2022-09-20T19:22:17.309Z,8.07
2022-09-20T19:25:07.059Z,8.60
2022-09-20T19:27:42.340Z,8.02
2022-09-20T19:30:17.515Z,7.60
2022-09-20T19:32:48.631Z,8.15
2022-09-20T19:35:25.260Z,12.32
2022-09-20T19:38:15.536Z,8.80
2022-09-20T19:40:54.865Z,10.33
2022-09-20T19:43:47.739Z,13.27
2022-09-20T19:46:37.858Z,13.40
2022-09-20T19:49:17.181Z,9.18
2022-09-20T19:51:48.482Z,10.90
2022-09-20T19:54:21.428Z,10.60
2022-09-20T19:56:59.510Z,9.77
2022-09-20T19:59:33.558Z,9.77
2022-09-20T20:02:08.064Z,9.50
2022-09-20T20:04:39.177Z,14.00
2022-09-20T20:09:54.936Z,9.85
2022-09-20T20:12:34.087Z,9.73
2022-09-20T20:15:22.566Z,8.48
2022-09-20T20:18:01.857Z,11.18
2022-09-20T20:20:38.567Z,10.68
2022-09-20T20:23:46.378Z,13.07
2022-09-20T20:26:23.488Z,10.13
2022-09-20T20:28:54.948Z,10.15
2022-09-20T20:31:28.685Z,8.35
2022-09-20T20:33:59.202Z,10.65
2022-09-20T20:36:29.453Z,9.98
2022-09-20T20:38:59.668Z,11.00
2022-09-20T20:41:31.942Z,13.13
2022-09-20T20:44:06.021Z,7.85
2022-09-20T20:46:41.521Z,9.00
2022-09-20T20:49:11.832Z,7.45
2022-09-20T20:51:41.990Z,8.32
2022-09-20T20:54:12.980Z,11.00
2022-09-20T20:59:15.953Z,8.82
2022-09-20T21:01:49.369Z,9.68
2022-09-20T21:04:20.427Z,8.45
2022-09-20T21:09:20.990Z,9.57
2022-09-20T21:11:53.980Z,9.57
2022-09-20T21:14:26.478Z,7.05
2022-09-20T21:16:59.321Z,6.53
2022-09-20T21:19:29.767Z,9.02
2022-09-20T21:21:59.916Z,5.88
2022-09-20T21:24:30.062Z,6.80
2022-09-20T21:27:00.082Z,6.27
2022-09-20T21:29:32.745Z,5.32
2022-09-20T21:32:07.227Z,6.07
2022-09-20T21:34:37.404Z,6.40
2022-09-20T21:37:07.722Z,7.37
2022-09-20T21:39:37.930Z,6.20
2022-09-20T21:42:08.916Z,6.10
2022-09-20T21:44:43.214Z,5.75
2022-09-20T21:47:20.824Z,6.45
2022-09-20T21:49:50.994Z,8.27
2022-09-20T21:52:21.121Z,5.70
2022-09-20T21:54:52.095Z,7.10
2022-09-20T21:59:52.289Z,6.47
2022-09-20T22:02:27.356Z,7.60
2022-09-20T22:05:01.290Z,10.95
2022-09-20T22:07:33.398Z,8.10
2022-09-20T22:10:07.436Z,8.98
2022-09-20T22:12:39.290Z,8.88
2022-09-20T22:15:11.872Z,10.05
2022-09-20T22:17:46.033Z,5.00
2022-09-20T22:20:16.575Z,16.45
2022-09-20T22:22:49.591Z,6.63
2022-09-20T22:25:21.034Z,8.13
2022-09-20T22:27:55.213Z,6.20
2022-09-20T22:33:00.053Z,6.32
2022-09-20T22:35:33.501Z,5.00
2022-09-20T22:38:10.090Z,5.15
2022-09-20T22:40:40.248Z,6.00
2022-09-20T22:43:10.290Z,5.27
2022-09-20T22:45:40.348Z,7.05
2022-09-20T22:48:12.998Z,6.13
2022-09-20T22:50:51.205Z,6.00
2022-09-20T22:53:21.427Z,5.30
2022-09-20T22:55:53.083Z,5.93
2022-09-20T22:58:25.766Z,6.43
2022-09-20T23:00:57.624Z,5.47
2022-09-20T23:03:30.606Z,5.93
2022-09-20T23:06:00.839Z,5.93
2022-09-20T23:08:32.083Z,6.27
2022-09-20T23:11:08.065Z,5.45
2022-09-20T23:13:43.893Z,5.43
2022-09-20T23:16:17.254Z,5.57
2022-09-20T23:18:52.465Z,5.25
2022-09-20T23:21:25.583Z,4.80
2022-09-20T23:23:57.675Z,7.10
2022-09-20T23:26:39.630Z,5.03
2022-09-20T23:29:15.900Z,5.55
2022-09-20T23:32:02.084Z,5.18
2022-09-20T23:34:40.571Z,6.72
2022-09-20T23:37:11.002Z,6.35
2022-09-20T23:39:41.491Z,5.97
2022-09-20T23:42:17.139Z,5.95
2022-09-20T23:44:50.336Z,7.72
2022-09-20T23:47:20.483Z,8.05
2022-09-20T23:49:54.424Z,5.93
2022-09-20T23:52:28.145Z,4.95
2022-09-20T23:54:58.225Z,5.20
2022-09-20T23:57:34.609Z,5.40
